Time;durP1;ratioP1;P1;durP2;ratioP2;P2;SDS_P1;SDS_P2;PMS_P1;PMS_P2;Temp;Humidity;BMP_temperature;BMP_pressure;BME280_temperature;BME280_humidity;BME280_pressure;Samples;Min_cycle;Max_cycle;Signal;HPM_P1;HPM_P2
2021/08/30 00:01:30;;;;;;;1.02;0.90;;;;;;;;;;5032471;28;20474;-52
2021/08/30 00:03:56;;;;;;;2.78;0.95;;;;;;;;;;5032320;28;20336;-52
2021/08/30 00:06:22;;;;;;;0.80;0.80;;;;;;;;;;5031777;28;20328;-52
2021/08/30 00:08:48;;;;;;;0.80;0.80;;;;;;;;;;5033203;28;20059;-52
2021/08/30 00:11:17;;;;;;;1.08;0.63;;;;;;;;;;5032555;28;20028;-52
2021/08/30 00:13:43;;;;;;;0.80;0.80;;;;;;;;;;5032445;28;20072;-53
2021/08/30 00:16:09;;;;;;;1.15;0.80;;;;;;;;;;5031800;28;20423;-52
2021/08/30 00:18:35;;;;;;;5.97;0.80;;;;;;;;;;5033214;28;20037;-52
2021/08/30 00:21:01;;;;;;;5.90;1.00;;;;;;;;;;5032693;28;20025;-52
2021/08/30 00:23:27;;;;;;;0.98;0.68;;;;;;;;;;5029970;28;20124;-52
2021/08/30 00:25:53;;;;;;;0.70;0.70;;;;;;;;;;5033205;28;20064;-53
2021/08/30 00:28:19;;;;;;;1.08;0.80;;;;;;;;;;5032610;28;20056;-52
2021/08/30 00:30:45;;;;;;;3.58;0.70;;;;;;;;;;5031379;28;20323;-52
2021/08/30 00:33:11;;;;;;;4.43;0.98;;;;;;;;;;5032353;28;20029;-52
2021/08/30 00:35:37;;;;;;;1.30;0.70;;;;;;;;;;5031906;28;20095;-53
2021/08/30 00:38:04;;;;;;;0.93;0.82;;;;;;;;;;5032747;28;20037;-52
2021/08/30 00:40:30;;;;;;;0.77;0.77;;;;;;;;;;5033296;28;20021;-52
2021/08/30 00:42:56;;;;;;;0.73;0.70;;;;;;;;;;5032615;28;20033;-52
2021/08/30 00:45:22;;;;;;;0.52;0.52;;;;;;;;;;5022261;28;20036;-52
2021/08/30 00:47:48;;;;;;;0.50;0.50;;;;;;;;;;5023930;28;20048;-52
2021/08/30 00:50:15;;;;;;;0.73;0.65;;;;;;;;;;5032324;28;20105;-52
2021/08/30 00:52:42;;;;;;;0.57;0.57;;;;;;;;;;5030450;28;20091;-52
2021/08/30 00:55:08;;;;;;;0.57;0.57;;;;;;;;;;5027494;28;20145;-52
2021/08/30 00:57:34;;;;;;;0.93;0.57;;;;;;;;;;5011733;28;20108;-52
2021/08/30 01:00:00;;;;;;;0.50;0.50;;;;;;;;;;5017944;28;20105;-52
2021/08/30 01:02:26;;;;;;;5.00;0.70;;;;;;;;;;5032393;28;20116;-52
2021/08/30 01:04:52;;;;;;;0.50;0.50;;;;;;;;;;5031651;28;20478;-52
2021/08/30 01:07:36;;;;;;;0.60;0.60;;;;;;;;;;5031300;28;20021;-52
2021/08/30 01:10:15;;;;;;;4.25;0.50;;;;;;;;;;5032233;28;20036;-52
2021/08/30 01:12:59;;;;;;;3.80;0.57;;;;;;;;;;5032541;28;20036;-52
2021/08/30 01:15:45;;;;;;;2.65;0.80;;;;;;;;;;5030559;28;20060;-52
2021/08/30 01:18:14;;;;;;;0.63;0.50;;;;;;;;;;5032201;28;20021;-52
2021/08/30 01:20:40;;;;;;;0.40;0.40;;;;;;;;;;5032607;28;20021;-52
2021/08/30 01:23:06;;;;;;;0.60;0.60;;;;;;;;;;5031844;28;20034;-53
2021/08/30 01:25:34;;;;;;;0.52;0.52;;;;;;;;;;5031601;28;20036;-52
2021/08/30 01:28:00;;;;;;;3.28;0.40;;;;;;;;;;5032194;28;20034;-53
2021/08/30 01:30:30;;;;;;;0.57;0.45;;;;;;;;;;5031086;28;20120;-52
2021/08/30 01:32:57;;;;;;;0.45;0.45;;;;;;;;;;5032209;28;20033;-52
2021/08/30 01:35:25;;;;;;;2.00;0.43;;;;;;;;;;5031209;28;20151;-52
2021/08/30 01:37:52;;;;;;;0.47;0.47;;;;;;;;;;5032011;28;20014;-52
2021/08/30 01:40:20;;;;;;;0.50;0.50;;;;;;;;;;5032403;28;20030;-53
2021/08/30 01:42:47;;;;;;;1.42;0.70;;;;;;;;;;5044668;28;20025;-52
2021/08/30 01:45:16;;;;;;;0.60;0.60;;;;;;;;;;5047030;28;20029;-52
2021/08/30 01:47:43;;;;;;;1.85;0.60;;;;;;;;;;5032418;28;20032;-52
2021/08/30 01:50:10;;;;;;;1.05;0.70;;;;;;;;;;5035854;28;20509;-52
2021/08/30 01:52:40;;;;;;;0.60;0.60;;;;;;;;;;5035088;28;20454;-52
2021/08/30 02:00:43;;;;;;;0.68;0.68;;;;;;;;;;5022667;28;20041;-52
2021/08/30 02:03:13;;;;;;;0.93;0.57;;;;;;;;;;5027474;28;20049;-52
2021/08/30 02:05:40;;;;;;;0.50;0.50;;;;;;;;;;5034972;28;20105;-52
2021/08/30 02:08:06;;;;;;;2.10;0.70;;;;;;;;;;5035116;28;20453;-52
2021/08/30 02:10:32;;;;;;;0.60;0.60;;;;;;;;;;5035657;28;20110;-52
2021/08/30 02:12:58;;;;;;;0.70;0.70;;;;;;;;;;5035105;28;20110;-52
2021/08/30 02:15:24;;;;;;;1.00;0.82;;;;;;;;;;5027234;28;20469;-52
2021/08/30 02:17:52;;;;;;;0.80;0.80;;;;;;;;;;5034020;28;20083;-52
2021/08/30 02:20:22;;;;;;;1.58;1.02;;;;;;;;;;5034964;28;20439;-52
2021/08/30 02:22:48;;;;;;;1.65;0.98;;;;;;;;;;5035009;28;20128;-52
2021/08/30 02:25:18;;;;;;;1.40;1.00;;;;;;;;;;5034202;28;20032;-52
2021/08/30 02:27:48;;;;;;;3.03;0.70;;;;;;;;;;5034929;28;20025;-52
2021/08/30 02:30:22;;;;;;;0.85;0.80;;;;;;;;;;5034044;28;20507;-52
2021/08/30 02:32:51;;;;;;;0.88;0.80;;;;;;;;;;5033852;28;20076;-52
2021/08/30 02:35:19;;;;;;;1.15;0.80;;;;;;;;;;5034095;28;20066;-52
2021/08/30 02:37:45;;;;;;;3.30;0.80;;;;;;;;;;5034378;28;20037;-52
2021/08/30 02:40:13;;;;;;;0.68;0.65;;;;;;;;;;5034871;28;20103;-52
2021/08/30 02:42:40;;;;;;;3.83;0.82;;;;;;;;;;5034335;28;20463;-52
2021/08/30 02:45:08;;;;;;;1.38;0.77;;;;;;;;;;5033566;28;20340;-52
2021/08/30 02:47:35;;;;;;;0.93;0.85;;;;;;;;;;5033636;28;20032;-52
2021/08/30 02:50:02;;;;;;;1.65;0.90;;;;;;;;;;5034390;28;20026;-52
2021/08/30 02:52:29;;;;;;;0.90;0.90;;;;;;;;;;5033617;28;20371;-52
2021/08/30 02:54:55;;;;;;;1.90;1.00;;;;;;;;;;5033442;28;20435;-52
2021/08/30 02:57:22;;;;;;;1.17;0.93;;;;;;;;;;5034687;28;20044;-52
2021/08/30 02:59:52;;;;;;;1.35;1.20;;;;;;;;;;5034277;28;20024;-53
2021/08/30 03:02:18;;;;;;;2.53;1.35;;;;;;;;;;5026347;28;20060;-52
2021/08/30 03:04:44;;;;;;;3.03;1.40;;;;;;;;;;5033180;28;20088;-53
2021/08/30 03:07:11;;;;;;;1.88;1.30;;;;;;;;;;5033997;28;20036;-53
2021/08/30 03:09:37;;;;;;;1.65;1.10;;;;;;;;;;5034342;28;20022;-53
2021/08/30 03:12:03;;;;;;;2.03;1.75;;;;;;;;;;5033947;28;20102;-52
2021/08/30 03:14:29;;;;;;;1.85;1.20;;;;;;;;;;5033472;28;20105;-52
2021/08/30 03:17:03;;;;;;;1.40;1.30;;;;;;;;;;5032420;28;20513;-52
2021/08/30 03:19:29;;;;;;;2.28;1.63;;;;;;;;;;5033773;28;20032;-52
2021/08/30 03:21:55;;;;;;;2.92;1.92;;;;;;;;;;5033418;28;20448;-52
2021/08/30 03:24:22;;;;;;;1.92;1.65;;;;;;;;;;5033472;28;20068;-52
2021/08/30 03:26:49;;;;;;;5.30;1.30;;;;;;;;;;5033340;28;20075;-53
2021/08/30 03:29:16;;;;;;;2.55;1.70;;;;;;;;;;5033851;28;20118;-52
2021/08/30 03:31:42;;;;;;;1.70;1.20;;;;;;;;;;5031855;28;20037;-52
2021/08/30 03:34:09;;;;;;;4.90;1.63;;;;;;;;;;5032626;28;20047;-52
2021/08/30 03:36:35;;;;;;;3.97;1.33;;;;;;;;;;5033637;28;20036;-52
2021/08/30 03:39:01;;;;;;;1.83;1.52;;;;;;;;;;5033547;28;20328;-52
2021/08/30 03:41:27;;;;;;;2.42;1.55;;;;;;;;;;5033626;28;20036;-52
2021/08/30 03:43:54;;;;;;;1.65;1.45;;;;;;;;;;5032884;28;20030;-52
2021/08/30 03:46:21;;;;;;;2.05;1.50;;;;;;;;;;5032592;28;20021;-52
2021/08/30 03:48:47;;;;;;;2.22;1.50;;;;;;;;;;5032685;28;20052;-52
2021/08/30 03:51:14;;;;;;;2.30;1.63;;;;;;;;;;5033229;28;20061;-52
2021/08/30 03:53:41;;;;;;;2.17;1.73;;;;;;;;;;5032868;28;20021;-52
2021/08/30 03:56:07;;;;;;;2.35;1.35;;;;;;;;;;5033682;28;20036;-52
2021/08/30 03:58:34;;;;;;;2.05;1.45;;;;;;;;;;5033147;28;20029;-52
2021/08/30 04:01:04;;;;;;;1.60;1.45;;;;;;;;;;5032987;28;20087;-52
2021/08/30 04:03:32;;;;;;;1.67;1.27;;;;;;;;;;5031005;28;20037;-52
2021/08/30 04:05:59;;;;;;;2.70;1.63;;;;;;;;;;5032606;28;20112;-52
2021/08/30 04:08:25;;;;;;;2.35;1.67;;;;;;;;;;5033248;28;20034;-52
2021/08/30 04:10:51;;;;;;;3.03;1.50;;;;;;;;;;5033059;28;20156;-52
2021/08/30 04:13:17;;;;;;;2.25;1.50;;;;;;;;;;5032724;28;20049;-52
2021/08/30 04:15:43;;;;;;;1.77;1.40;;;;;;;;;;5032098;28;20062;-52
2021/08/30 04:18:09;;;;;;;1.83;1.50;;;;;;;;;;5031649;28;20383;-52
2021/08/30 04:20:35;;;;;;;1.58;1.30;;;;;;;;;;5033398;28;20018;-52
2021/08/30 04:23:01;;;;;;;2.17;1.42;;;;;;;;;;5032777;28;20095;-52
2021/08/30 04:25:27;;;;;;;4.53;1.40;;;;;;;;;;5032459;28;20049;-52
2021/08/30 04:27:53;;;;;;;2.40;1.25;;;;;;;;;;5032561;28;20034;-53
2021/08/30 04:30:19;;;;;;;3.85;1.15;;;;;;;;;;5032252;28;20029;-52
2021/08/30 04:32:45;;;;;;;1.77;1.02;;;;;;;;;;5031271;28;20426;-52
2021/08/30 04:35:11;;;;;;;1.58;1.30;;;;;;;;;;5032177;28;20108;-53
2021/08/30 04:37:37;;;;;;;1.58;1.15;;;;;;;;;;5032782;28;20037;-52
2021/08/30 04:40:03;;;;;;;1.30;1.20;;;;;;;;;;5032519;28;20053;-52
2021/08/30 04:42:30;;;;;;;1.25;1.15;;;;;;;;;;5033010;28;20038;-52
2021/08/30 04:44:56;;;;;;;1.67;1.42;;;;;;;;;;5031805;28;20021;-52
2021/08/30 04:47:22;;;;;;;1.10;1.00;;;;;;;;;;5032215;28;20366;-52
2021/08/30 04:49:48;;;;;;;1.10;1.00;;;;;;;;;;5031862;28;20022;-52
2021/08/30 04:52:14;;;;;;;1.48;1.20;;;;;;;;;;5032795;28;20049;-52
2021/08/30 04:54:40;;;;;;;0.70;0.70;;;;;;;;;;5031855;28;20466;-52
2021/08/30 04:57:06;;;;;;;1.20;1.10;;;;;;;;;;5032545;28;20036;-52
2021/08/30 04:59:32;;;;;;;0.80;0.80;;;;;;;;;;5032295;28;20030;-52
2021/08/30 05:01:58;;;;;;;1.10;1.00;;;;;;;;;;5031966;28;20040;-52
2021/08/30 05:04:26;;;;;;;1.25;0.93;;;;;;;;;;5031267;28;20025;-52
2021/08/30 05:06:52;;;;;;;1.08;0.98;;;;;;;;;;5032601;28;20033;-52
2021/08/30 05:09:18;;;;;;;1.10;0.88;;;;;;;;;;5032770;28;20163;-52
2021/08/30 05:11:44;;;;;;;0.80;0.80;;;;;;;;;;5032189;28;20116;-52
2021/08/30 05:14:10;;;;;;;1.38;0.98;;;;;;;;;;5031472;28;20026;-52
2021/08/30 05:16:36;;;;;;;1.50;1.05;;;;;;;;;;5031951;28;20336;-52
2021/08/30 05:19:02;;;;;;;4.95;0.90;;;;;;;;;;5034961;28;20045;-52
2021/08/30 05:21:28;;;;;;;1.10;0.93;;;;;;;;;;5035185;28;20025;-52
2021/08/30 05:23:54;;;;;;;0.80;0.75;;;;;;;;;;5035516;28;20358;-52
2021/08/30 05:26:20;;;;;;;1.40;0.80;;;;;;;;;;5036076;28;20025;-52
2021/08/30 05:28:46;;;;;;;2.40;1.00;;;;;;;;;;5035530;28;20076;-52
2021/08/30 05:31:12;;;;;;;0.70;0.70;;;;;;;;;;5035583;28;20033;-52
2021/08/30 05:33:38;;;;;;;0.70;0.70;;;;;;;;;;5034096;28;20359;-52
2021/08/30 05:36:05;;;;;;;0.90;0.70;;;;;;;;;;5035738;28;20089;-52
2021/08/30 05:38:31;;;;;;;0.60;0.60;;;;;;;;;;5035578;28;20053;-51
2021/08/30 05:40:57;;;;;;;1.08;0.70;;;;;;;;;;5035904;28;20025;-51
2021/08/30 05:43:24;;;;;;;0.75;0.75;;;;;;;;;;5034662;28;20029;-52
2021/08/30 05:45:50;;;;;;;0.85;0.63;;;;;;;;;;5036511;28;20048;-52
2021/08/30 05:48:16;;;;;;;1.17;0.90;;;;;;;;;;5034281;28;20057;-52
2021/08/30 05:50:42;;;;;;;2.00;0.80;;;;;;;;;;5035629;28;20018;-51
2021/08/30 05:53:08;;;;;;;0.80;0.73;;;;;;;;;;5035532;28;20025;-52
2021/08/30 05:55:34;;;;;;;0.70;0.50;;;;;;;;;;5034777;28;20068;-51
2021/08/30 05:58:00;;;;;;;1.13;0.70;;;;;;;;;;5035475;28;20099;-51
2021/08/30 06:00:26;;;;;;;0.77;0.77;;;;;;;;;;5035987;28;20103;-52
2021/08/30 06:02:52;;;;;;;1.05;0.60;;;;;;;;;;5034760;28;20273;-51
2021/08/30 06:05:18;;;;;;;3.28;0.50;;;;;;;;;;5034188;28;20017;-52
2021/08/30 06:07:44;;;;;;;0.50;0.50;;;;;;;;;;5035269;28;20447;-52
2021/08/30 06:10:10;;;;;;;0.65;0.65;;;;;;;;;;5035759;28;20025;-52
2021/08/30 06:12:38;;;;;;;0.38;0.38;;;;;;;;;;5035155;28;20061;-52
2021/08/30 06:15:04;;;;;;;0.88;0.70;;;;;;;;;;5035072;28;20057;-52
2021/08/30 06:17:30;;;;;;;0.85;0.70;;;;;;;;;;5035217;28;20091;-51
2021/08/30 06:19:56;;;;;;;1.08;0.68;;;;;;;;;;5034353;28;20026;-51
2021/08/30 06:22:22;;;;;;;1.02;0.75;;;;;;;;;;5034882;28;20038;-52
2021/08/30 06:24:50;;;;;;;0.95;0.80;;;;;;;;;;5033937;28;20021;-52
2021/08/30 06:27:17;;;;;;;1.17;0.93;;;;;;;;;;5035200;28;20034;-52
2021/08/30 06:29:43;;;;;;;3.67;0.57;;;;;;;;;;5034237;28;20486;-51
2021/08/30 06:32:10;;;;;;;0.93;0.70;;;;;;;;;;5034577;28;20447;-52
2021/08/30 06:34:35;;;;;;;2.70;0.90;;;;;;;;;;5033093;28;20029;-52
2021/08/30 06:37:01;;;;;;;0.52;0.52;;;;;;;;;;5034763;28;20029;-52
2021/08/30 06:39:28;;;;;;;0.82;0.60;;;;;;;;;;5034682;28;20100;-52
2021/08/30 06:41:54;;;;;;;1.42;0.85;;;;;;;;;;5034929;28;20061;-52
2021/08/30 06:44:20;;;;;;;0.73;0.70;;;;;;;;;;5033687;28;20029;-52
2021/08/30 06:46:46;;;;;;;1.33;0.90;;;;;;;;;;5022237;28;20030;-52
2021/08/30 06:49:12;;;;;;;0.85;0.85;;;;;;;;;;5033504;28;20152;-51
2021/08/30 06:51:38;;;;;;;2.72;0.95;;;;;;;;;;5034589;28;20022;-51
2021/08/30 06:54:03;;;;;;;1.52;0.80;;;;;;;;;;5033698;28;20416;-52
2021/08/30 06:56:29;;;;;;;3.17;1.17;;;;;;;;;;5034606;28;20018;-52
2021/08/30 06:58:55;;;;;;;1.35;0.80;;;;;;;;;;5033960;28;20324;-51
2021/08/30 07:01:21;;;;;;;0.80;0.77;;;;;;;;;;5033959;28;20026;-51
2021/08/30 07:03:48;;;;;;;1.48;0.70;;;;;;;;;;5033190;28;20359;-52
2021/08/30 07:06:14;;;;;;;1.23;0.68;;;;;;;;;;5033486;28;20033;-51
2021/08/30 07:08:40;;;;;;;0.80;0.80;;;;;;;;;;5034405;28;20036;-52
2021/08/30 07:11:06;;;;;;;1.02;0.95;;;;;;;;;;5032560;28;20032;-51
2021/08/30 07:13:32;;;;;;;1.05;0.93;;;;;;;;;;5033394;28;20034;-51
2021/08/30 07:15:58;;;;;;;1.67;1.10;;;;;;;;;;5034144;28;20031;-51
2021/08/30 07:18:24;;;;;;;1.77;1.20;;;;;;;;;;5033724;28;20033;-52
2021/08/30 07:20:51;;;;;;;1.15;0.90;;;;;;;;;;5032927;28;20033;-52
2021/08/30 07:23:18;;;;;;;1.50;1.20;;;;;;;;;;5033474;28;20124;-52
2021/08/30 07:25:44;;;;;;;1.35;1.25;;;;;;;;;;5033773;28;20243;-51
2021/08/30 07:28:10;;;;;;;1.33;0.90;;;;;;;;;;5033577;28;20474;-51
2021/08/30 07:30:36;;;;;;;2.75;1.25;;;;;;;;;;5033810;28;20032;-51
2021/08/30 07:33:02;;;;;;;1.65;1.15;;;;;;;;;;5033387;28;20026;-52
2021/08/30 07:35:28;;;;;;;1.23;1.13;;;;;;;;;;5032359;28;20080;-52
2021/08/30 07:37:54;;;;;;;2.80;1.88;;;;;;;;;;5033558;28;20021;-51
2021/08/30 07:40:20;;;;;;;1.75;1.30;;;;;;;;;;5033373;28;20118;-51
2021/08/30 07:42:47;;;;;;;1.35;1.10;;;;;;;;;;5032795;28;20087;-51
2021/08/30 07:45:13;;;;;;;2.35;1.33;;;;;;;;;;5033007;28;20026;-51
2021/08/30 07:47:42;;;;;;;2.13;1.52;;;;;;;;;;5032978;28;20107;-51
2021/08/30 07:50:09;;;;;;;5.53;1.50;;;;;;;;;;5024937;28;20052;-52
2021/08/30 07:52:35;;;;;;;1.80;1.52;;;;;;;;;;5033278;28;20030;-52
2021/08/30 07:55:02;;;;;;;2.40;1.70;;;;;;;;;;5032593;28;20080;-51
2021/08/30 07:57:28;;;;;;;4.15;1.70;;;;;;;;;;5033309;28;20025;-52
2021/08/30 07:59:54;;;;;;;3.17;1.98;;;;;;;;;;5033023;28;20463;-52
2021/08/30 08:02:20;;;;;;;3.38;1.88;;;;;;;;;;5032727;28;20064;-51
2021/08/30 08:04:46;;;;;;;2.83;2.00;;;;;;;;;;5031489;28;20037;-51
2021/08/30 08:07:12;;;;;;;6.13;2.05;;;;;;;;;;5033567;28;20022;-52
2021/08/30 08:09:37;;;;;;;4.35;2.72;;;;;;;;;;5033082;28;20025;-51
2021/08/30 08:12:05;;;;;;;3.20;2.03;;;;;;;;;;5033210;28;20547;-52
2021/08/30 08:14:31;;;;;;;5.57;2.13;;;;;;;;;;5032438;28;20044;-52
2021/08/30 08:16:57;;;;;;;2.90;2.35;;;;;;;;;;5032824;28;20443;-52
2021/08/30 08:19:23;;;;;;;4.78;2.25;;;;;;;;;;5032448;28;20034;-52
2021/08/30 08:21:49;;;;;;;4.90;2.70;;;;;;;;;;5032100;28;20414;-52
2021/08/30 08:24:15;;;;;;;4.25;2.92;;;;;;;;;;5032132;28;20017;-52
2021/08/30 08:26:41;;;;;;;3.28;2.10;;;;;;;;;;5032019;28;20132;-52
2021/08/30 08:29:07;;;;;;;4.65;3.10;;;;;;;;;;5033345;28;20036;-52
2021/08/30 08:31:33;;;;;;;3.47;2.55;;;;;;;;;;5032854;28;20402;-51
2021/08/30 08:33:59;;;;;;;5.82;2.42;;;;;;;;;;5031413;28;20447;-52
2021/08/30 08:36:26;;;;;;;4.32;2.70;;;;;;;;;;5031738;28;20037;-51
2021/08/30 08:38:52;;;;;;;4.00;2.42;;;;;;;;;;5032460;28;20363;-52
2021/08/30 08:41:18;;;;;;;4.32;3.00;;;;;;;;;;5032982;28;20036;-52
2021/08/30 08:43:44;;;;;;;5.05;3.03;;;;;;;;;;5031788;28;20462;-52
2021/08/30 08:46:10;;;;;;;4.25;2.30;;;;;;;;;;5032960;28;20014;-52
2021/08/30 08:48:36;;;;;;;4.40;2.30;;;;;;;;;;5032314;28;20355;-52
2021/08/30 08:51:02;;;;;;;5.03;3.45;;;;;;;;;;5031480;28;20033;-52
2021/08/30 08:53:28;;;;;;;6.65;3.08;;;;;;;;;;5034508;28;20433;-52
2021/08/30 08:55:54;;;;;;;4.32;2.88;;;;;;;;;;5036726;28;20108;-52
2021/08/30 08:58:21;;;;;;;5.07;3.38;;;;;;;;;;5036804;28;20116;-52
2021/08/30 09:01:00;;;;;;;5.55;2.78;;;;;;;;;;5036383;28;20346;-52
2021/08/30 09:03:26;;;;;;;3.63;2.78;;;;;;;;;;5035592;28;20041;-52
2021/08/30 09:06:02;;;;;;;4.65;2.72;;;;;;;;;;5035692;28;20121;-52
2021/08/30 09:08:30;;;;;;;6.80;3.13;;;;;;;;;;5036365;28;20028;-51
2021/08/30 09:10:56;;;;;;;6.03;2.92;;;;;;;;;;5036027;28;20025;-52
2021/08/30 09:13:32;;;;;;;6.28;2.67;;;;;;;;;;5035869;28;20052;-52
2021/08/30 09:15:58;;;;;;;5.57;2.70;;;;;;;;;;5036562;28;20124;-52
2021/08/30 09:18:29;;;;;;;5.50;2.95;;;;;;;;;;5035785;28;20036;-52
2021/08/30 09:20:55;;;;;;;5.03;2.90;;;;;;;;;;5034903;28;20059;-52
2021/08/30 09:23:22;;;;;;;3.10;2.47;;;;;;;;;;5035831;28;20041;-52
2021/08/30 09:25:48;;;;;;;5.10;3.28;;;;;;;;;;5035912;28;20100;-52
2021/08/30 09:28:14;;;;;;;2.97;2.25;;;;;;;;;;5036129;28;20037;-52
2021/08/30 09:30:40;;;;;;;8.05;2.97;;;;;;;;;;5036146;28;20027;-52
2021/08/30 09:33:06;;;;;;;7.95;2.92;;;;;;;;;;5035714;28;20029;-52
2021/08/30 09:35:32;;;;;;;6.13;3.05;;;;;;;;;;5034606;28;20344;-51
2021/08/30 09:37:58;;;;;;;3.63;2.30;;;;;;;;;;5036035;28;20025;-52
2021/08/30 09:40:27;;;;;;;7.05;2.90;;;;;;;;;;5035809;28;20359;-52
2021/08/30 09:42:57;;;;;;;7.22;2.90;;;;;;;;;;5035749;28;20509;-52
2021/08/30 09:45:28;;;;;;;5.05;2.80;;;;;;;;;;5035097;28;20108;-52
2021/08/30 09:47:54;;;;;;;;;;;;;;;;;;5035707;28;20594;-52
2021/08/30 09:50:21;;;;;;;4.80;2.40;;;;;;;;;;5035362;28;20311;-52
2021/08/30 09:52:47;;;;;;;4.80;2.42;;;;;;;;;;5034429;28;20061;-52
2021/08/30 09:55:13;;;;;;;5.05;2.58;;;;;;;;;;5035438;28;20064;-52
2021/08/30 09:57:46;;;;;;;4.63;2.35;;;;;;;;;;5035541;28;20025;-52
2021/08/30 10:00:12;;;;;;;3.28;2.30;;;;;;;;;;5036030;28;20033;-52
2021/08/30 10:02:38;;;;;;;3.30;2.08;;;;;;;;;;5034932;28;20412;-52
2021/08/30 10:05:04;;;;;;;5.10;2.38;;;;;;;;;;5025337;28;20108;-52
2021/08/30 10:07:33;;;;;;;3.97;2.00;;;;;;;;;;5034528;28;20108;-52
2021/08/30 10:09:59;;;;;;;2.63;1.80;;;;;;;;;;5035439;28;20351;-52
2021/08/30 10:12:25;;;;;;;3.35;1.77;;;;;;;;;;5035597;28;20025;-52
2021/08/30 10:14:51;;;;;;;4.22;2.03;;;;;;;;;;5034226;28;20082;-52
2021/08/30 10:17:18;;;;;;;2.53;1.60;;;;;;;;;;5035212;28;20030;-52
2021/08/30 10:19:44;;;;;;;2.63;1.73;;;;;;;;;;5034555;28;20363;-52
2021/08/30 10:22:17;;;;;;;3.15;1.95;;;;;;;;;;5033944;28;20466;-52
2021/08/30 10:24:43;;;;;;;2.47;1.75;;;;;;;;;;5034592;28;20021;-52
2021/08/30 10:27:10;;;;;;;3.05;2.20;;;;;;;;;;5034639;28;20293;-52
2021/08/30 10:29:40;;;;;;;5.45;1.88;;;;;;;;;;5034949;28;20108;-52
2021/08/30 10:32:08;;;;;;;4.05;2.03;;;;;;;;;;5034901;28;20025;-52
2021/08/30 10:34:36;;;;;;;1.80;1.55;;;;;;;;;;5033677;28;20041;-52
2021/08/30 10:37:04;;;;;;;2.20;1.83;;;;;;;;;;5034129;28;20436;-52
2021/08/30 10:39:43;;;;;;;2.50;1.63;;;;;;;;;;5034924;28;20079;-52
2021/08/30 10:42:15;;;;;;;3.20;1.85;;;;;;;;;;5034720;28;20041;-51
2021/08/30 10:44:51;;;;;;;2.38;1.98;;;;;;;;;;5033858;28;20108;-52
2021/08/30 10:47:17;;;;;;;1.95;1.55;;;;;;;;;;5034682;28;20029;-52
2021/08/30 10:49:43;;;;;;;3.28;1.55;;;;;;;;;;5034372;28;20022;-52
2021/08/30 10:52:19;;;;;;;1.80;1.65;;;;;;;;;;5033984;28;20036;-51
2021/08/30 10:54:49;;;;;;;1.58;1.42;;;;;;;;;;5033323;28;20033;-52
2021/08/30 10:57:15;;;;;;;3.50;1.40;;;;;;;;;;5034752;28;20032;-51
2021/08/30 10:59:47;;;;;;;1.58;1.35;;;;;;;;;;5034321;28;20367;-51
2021/08/30 11:02:13;;;;;;;2.70;1.73;;;;;;;;;;5034430;28;20451;-51
2021/08/30 11:04:41;;;;;;;1.60;1.30;;;;;;;;;;5033268;28;20021;-52
2021/08/30 11:07:08;;;;;;;1.98;1.77;;;;;;;;;;5024645;28;20029;-51
2021/08/30 11:09:37;;;;;;;2.25;1.50;;;;;;;;;;5034406;28;20482;-52
2021/08/30 11:12:10;;;;;;;2.42;1.60;;;;;;;;;;5033700;28;20057;-51
2021/08/30 11:14:37;;;;;;;2.28;1.38;;;;;;;;;;5033636;28;20029;-52
2021/08/30 11:17:03;;;;;;;3.17;1.95;;;;;;;;;;5033938;28;20029;-52
2021/08/30 11:19:29;;;;;;;3.00;1.60;;;;;;;;;;5033824;28;20029;-51
2021/08/30 11:21:58;;;;;;;3.90;1.70;;;;;;;;;;5032654;28;20040;-51
2021/08/30 11:24:27;;;;;;;2.00;1.58;;;;;;;;;;5033475;28;20445;-51
2021/08/30 11:26:53;;;;;;;4.15;1.67;;;;;;;;;;5033850;28;20038;-51
2021/08/30 11:29:20;;;;;;;2.92;1.90;;;;;;;;;;5033682;28;20056;-51
2021/08/30 11:31:46;;;;;;;3.50;2.20;;;;;;;;;;5033587;28;20442;-51
2021/08/30 11:34:22;;;;;;;3.25;1.98;;;;;;;;;;5032357;28;20033;-52
2021/08/30 11:36:49;;;;;;;1.85;1.42;;;;;;;;;;5032946;28;20482;-51
2021/08/30 11:39:16;;;;;;;1.35;1.20;;;;;;;;;;5033821;28;20630;-52
2021/08/30 11:41:46;;;;;;;2.20;1.13;;;;;;;;;;5033311;28;20044;-52
2021/08/30 11:44:13;;;;;;;1.37;1.03;;;;;;;;;;5032958;28;20022;-51
2021/08/30 11:46:50;;;;;;;1.30;1.10;;;;;;;;;;5033262;28;20815;-51
2021/08/30 11:49:16;;;;;;;1.38;0.95;;;;;;;;;;5033334;28;20033;-51
2021/08/30 11:51:43;;;;;;;2.38;1.63;;;;;;;;;;5032630;28;20025;-52
2021/08/30 11:54:11;;;;;;;1.90;1.00;;;;;;;;;;5032915;28;20022;-52
2021/08/30 11:56:37;;;;;;;2.22;0.98;;;;;;;;;;5033720;28;20032;-52
2021/08/30 11:59:03;;;;;;;2.67;1.73;;;;;;;;;;5033350;28;20105;-51
2021/08/30 12:01:36;;;;;;;2.88;1.02;;;;;;;;;;5033037;28;20104;-52
2021/08/30 12:04:02;;;;;;;2.15;0.93;;;;;;;;;;5032129;28;20076;-51
2021/08/30 12:06:28;;;;;;;11.93;1.80;;;;;;;;;;5033336;28;20025;-52
2021/08/30 12:08:56;;;;;;;1.52;1.10;;;;;;;;;;5031734;28;20364;-51
2021/08/30 12:11:23;;;;;;;1.20;1.02;;;;;;;;;;5033278;28;20396;-52
2021/08/30 12:16:27;;;;;;;7.18;1.17;;;;;;;;;;5033167;28;20025;-51
2021/08/30 12:18:54;;;;;;;1.45;1.20;;;;;;;;;;5032529;28;20391;-51
2021/08/30 12:21:30;;;;;;;2.47;1.25;;;;;;;;;;5032842;28;20462;-51
2021/08/30 12:23:56;;;;;;;1.60;1.05;;;;;;;;;;5031311;28;20029;-51
2021/08/30 12:26:22;;;;;;;2.03;1.30;;;;;;;;;;5032600;28;20036;-51
2021/08/30 12:28:53;;;;;;;2.65;1.20;;;;;;;;;;5032238;28;20090;-52
2021/08/30 12:31:30;;;;;;;2.10;1.30;;;;;;;;;;5033052;28;20029;-51
2021/08/30 12:34:06;;;;;;;3.33;1.50;;;;;;;;;;5031600;28;20052;-51
2021/08/30 12:36:32;;;;;;;2.22;1.10;;;;;;;;;;5032735;28;20021;-51
2021/08/30 12:38:58;;;;;;;3.78;1.20;;;;;;;;;;5031464;28;20032;-52
2021/08/30 12:41:24;;;;;;;1.90;1.35;;;;;;;;;;5033159;28;20118;-52
2021/08/30 12:43:50;;;;;;;1.90;1.50;;;;;;;;;;5031747;28;20049;-51
2021/08/30 12:46:16;;;;;;;3.22;1.30;;;;;;;;;;5022684;28;20033;-51
2021/08/30 12:48:42;;;;;;;1.75;1.15;;;;;;;;;;5026723;28;20048;-52
2021/08/30 12:51:10;;;;;;;2.08;1.33;;;;;;;;;;5029989;28;20029;-51
2021/08/30 12:53:36;;;;;;;2.50;1.30;;;;;;;;;;5030520;28;20455;-52
2021/08/30 12:56:03;;;;;;;2.25;1.10;;;;;;;;;;5032955;28;20356;-51
2021/08/30 12:58:29;;;;;;;3.15;1.40;;;;;;;;;;5032954;28;20021;-52
2021/08/30 13:00:55;;;;;;;2.95;1.42;;;;;;;;;;5032408;28;20037;-52
2021/08/30 13:03:21;;;;;;;5.72;1.40;;;;;;;;;;5031578;28;20060;-52
2021/08/30 13:05:47;;;;;;;2.38;1.42;;;;;;;;;;5032362;28;20022;-52
2021/08/30 13:08:15;;;;;;;1.88;1.48;;;;;;;;;;5031651;28;20025;-52
2021/08/30 13:10:41;;;;;;;1.48;1.27;;;;;;;;;;5031517;28;20018;-52
2021/08/30 13:13:08;;;;;;;2.72;1.40;;;;;;;;;;5032757;28;20026;-51
2021/08/30 13:15:34;;;;;;;2.65;1.48;;;;;;;;;;5031480;28;20391;-52
2021/08/30 13:18:01;;;;;;;2.20;1.85;;;;;;;;;;5032498;28;20036;-52
2021/08/30 13:20:27;;;;;;;2.35;1.75;;;;;;;;;;5030775;28;20421;-53
2021/08/30 13:22:53;;;;;;;2.92;1.92;;;;;;;;;;5031266;28;20041;-52
2021/08/30 13:25:21;;;;;;;2.08;1.63;;;;;;;;;;5031902;28;20028;-52
2021/08/30 13:27:48;;;;;;;2.53;1.80;;;;;;;;;;5031838;28;20458;-53
2021/08/30 13:30:15;;;;;;;2.17;1.58;;;;;;;;;;5032220;28;20439;-52
2021/08/30 13:32:42;;;;;;;3.63;1.35;;;;;;;;;;5031895;28;20033;-52
2021/08/30 13:35:09;;;;;;;1.58;1.30;;;;;;;;;;5031364;28;20068;-52
2021/08/30 13:37:35;;;;;;;2.55;1.40;;;;;;;;;;5032450;28;20029;-52
2021/08/30 13:40:01;;;;;;;2.17;1.50;;;;;;;;;;5033275;28;20087;-52
2021/08/30 13:42:27;;;;;;;3.05;1.67;;;;;;;;;;5035537;28;20037;-52
2021/08/30 13:44:53;;;;;;;2.63;1.30;;;;;;;;;;5034846;28;20083;-52
2021/08/30 13:47:20;;;;;;;2.75;1.63;;;;;;;;;;5035940;28;20120;-51
2021/08/30 13:49:46;;;;;;;2.88;1.52;;;;;;;;;;5035278;28;20032;-52
2021/08/30 13:52:13;;;;;;;2.90;1.80;;;;;;;;;;5035450;28;20366;-52
2021/08/30 13:54:39;;;;;;;2.95;1.48;;;;;;;;;;5034226;28;20068;-52
2021/08/30 13:57:05;;;;;;;1.70;1.40;;;;;;;;;;5035731;28;20025;-52
2021/08/30 13:59:31;;;;;;;4.18;1.38;;;;;;;;;;5035664;28;20029;-52
2021/08/30 14:01:57;;;;;;;4.65;1.45;;;;;;;;;;5034786;28;20044;-51
2021/08/30 14:04:23;;;;;;;2.25;1.55;;;;;;;;;;5034283;28;20351;-52
2021/08/30 14:06:49;;;;;;;2.67;1.33;;;;;;;;;;5035746;28;20029;-52
2021/08/30 14:09:15;;;;;;;2.17;1.60;;;;;;;;;;5034286;28;20037;-52
2021/08/30 14:11:41;;;;;;;2.03;1.60;;;;;;;;;;5035529;28;20022;-52
2021/08/30 14:14:09;;;;;;;3.50;2.08;;;;;;;;;;5034682;28;20112;-52
2021/08/30 14:16:39;;;;;;;1.92;1.40;;;;;;;;;;5035497;28;20025;-52
2021/08/30 14:19:05;;;;;;;1.55;1.33;;;;;;;;;;5035134;28;20388;-52
2021/08/30 14:21:31;;;;;;;2.88;2.03;;;;;;;;;;5033256;28;20075;-52
2021/08/30 14:23:57;;;;;;;2.83;1.70;;;;;;;;;;5033554;28;20041;-52
2021/08/30 14:26:23;;;;;;;2.78;1.77;;;;;;;;;;5035606;28;20025;-52
2021/08/30 14:28:49;;;;;;;2.45;1.90;;;;;;;;;;5034285;28;20037;-52
2021/08/30 14:31:15;;;;;;;3.15;1.90;;;;;;;;;;5035077;28;20029;-52
2021/08/30 14:33:41;;;;;;;4.25;1.95;;;;;;;;;;5033984;28;20055;-52
2021/08/30 14:36:07;;;;;;;2.67;2.00;;;;;;;;;;5034403;28;20032;-51
2021/08/30 14:38:33;;;;;;;3.63;2.13;;;;;;;;;;5033635;28;20021;-52
2021/08/30 14:40:59;;;;;;;3.53;2.00;;;;;;;;;;5034965;28;20116;-51
2021/08/30 14:43:25;;;;;;;3.40;2.17;;;;;;;;;;5034452;28;20072;-52
2021/08/30 14:45:51;;;;;;;3.45;2.35;;;;;;;;;;5034302;28;20057;-52
2021/08/30 14:48:17;;;;;;;3.15;1.73;;;;;;;;;;5034438;28;20033;-52
2021/08/30 14:50:45;;;;;;;4.68;2.20;;;;;;;;;;5028096;28;20028;-52